Time;durP1;ratioP1;P1;durP2;ratioP2;P2;SDS_P1;SDS_P2;PMS_P1;PMS_P2;Temp;Humidity;BMP_temperature;BMP_pressure;BME280_temperature;BME280_humidity;BME280_pressure;Samples;Min_cycle;Max_cycle;Signal;HPM_P1;HPM_P2
2022/09/27 00:01:53;;;;;;;9.23;7.53;;;;;;;;;;5114003;28;20200;-70
2022/09/27 00:04:20;;;;;;;8.65;7.95;;;;;;;;;;5114110;28;20201;-69
2022/09/27 00:06:48;;;;;;;7.18;6.70;;;;;;;;;;5115616;28;20228;-70
2022/09/27 00:09:14;;;;;;;7.68;7.07;;;;;;;;;;5114972;28;20197;-69
2022/09/27 00:11:41;;;;;;;8.63;7.93;;;;;;;;;;5113439;28;20287;-70
2022/09/27 00:14:09;;;;;;;8.60;7.95;;;;;;;;;;5113080;28;20220;-70
2022/09/27 00:16:36;;;;;;;8.32;7.35;;;;;;;;;;5113668;28;20197;-68
2022/09/27 00:19:04;;;;;;;8.23;7.45;;;;;;;;;;5113705;28;20193;-70
2022/09/27 00:21:31;;;;;;;8.45;7.65;;;;;;;;;;5113568;28;20701;-70
2022/09/27 00:23:59;;;;;;;7.40;6.60;;;;;;;;;;5113755;28;20197;-68
2022/09/27 00:26:26;;;;;;;8.75;7.28;;;;;;;;;;5113167;28;20246;-70
2022/09/27 00:28:52;;;;;;;7.07;6.65;;;;;;;;;;5113471;28;20197;-70
2022/09/27 00:31:20;;;;;;;7.00;6.30;;;;;;;;;;5113083;28;20257;-70
2022/09/27 00:33:47;;;;;;;7.55;6.95;;;;;;;;;;5113178;28;20220;-70
2022/09/27 00:36:14;;;;;;;7.88;7.25;;;;;;;;;;5113233;28;20279;-70
2022/09/27 00:38:41;;;;;;;8.38;7.55;;;;;;;;;;5112883;28;20201;-70
2022/09/27 00:41:09;;;;;;;7.32;6.82;;;;;;;;;;5113332;28;20197;-69
2022/09/27 00:43:43;;;;;;;9.60;7.28;;;;;;;;;;5113027;28;20197;-68
2022/09/27 00:46:11;;;;;;;9.50;7.45;;;;;;;;;;5112583;28;20218;-69
2022/09/27 00:48:37;;;;;;;7.57;6.82;;;;;;;;;;5113417;28;20201;-70
2022/09/27 00:51:05;;;;;;;8.07;7.32;;;;;;;;;;5112602;28;20196;-69
2022/09/27 00:53:33;;;;;;;7.88;7.10;;;;;;;;;;5113231;28;20287;-69
2022/09/27 00:56:01;;;;;;;7.82;7.25;;;;;;;;;;5112635;28;20752;-69
2022/09/27 00:58:30;;;;;;;7.68;7.07;;;;;;;;;;5113739;28;20209;-69
2022/09/27 01:00:58;;;;;;;7.95;6.97;;;;;;;;;;5112505;28;20577;-68
2022/09/27 01:03:31;;;;;;;7.85;7.20;;;;;;;;;;5112680;28;20193;-69
2022/09/27 01:05:59;;;;;;;8.35;7.85;;;;;;;;;;5112166;28;20718;-70
2022/09/27 01:08:25;;;;;;;8.65;8.07;;;;;;;;;;5113265;28;20197;-70
2022/09/27 01:10:59;;;;;;;9.13;8.27;;;;;;;;;;5113060;28;20197;-69
2022/09/27 01:13:29;;;;;;;8.45;7.57;;;;;;;;;;5112476;28;20193;-69
2022/09/27 01:16:02;;;;;;;8.77;8.10;;;;;;;;;;5112947;28;20263;-70
2022/09/27 01:18:32;;;;;;;8.65;7.85;;;;;;;;;;5112416;28;20249;-69
2022/09/27 01:21:13;;;;;;;9.63;8.60;;;;;;;;;;5112602;28;20201;-70
2022/09/27 01:23:55;;;;;;;9.02;7.03;;;;;;;;;;5112242;28;20562;-70
2022/09/27 01:26:30;;;;;;;10.50;8.27;;;;;;;;;;5111722;28;20655;-68
2022/09/27 01:29:01;;;;;;;9.18;8.40;;;;;;;;;;5112600;28;20265;-70
2022/09/27 01:31:31;;;;;;;9.32;8.43;;;;;;;;;;5112020;28;20250;-70
2022/09/27 01:34:01;;;;;;;9.00;8.18;;;;;;;;;;5112266;28;20201;-67
2022/09/27 01:36:31;;;;;;;9.23;8.48;;;;;;;;;;5111796;28;20200;-70
2022/09/27 01:39:05;;;;;;;8.10;7.28;;;;;;;;;;5112028;28;20251;-69
2022/09/27 01:41:36;;;;;;;11.57;9.48;;;;;;;;;;5112168;28;20192;-70
2022/09/27 01:44:05;;;;;;;9.52;8.57;;;;;;;;;;5112291;28;20193;-69
2022/09/27 01:46:35;;;;;;;9.60;8.73;;;;;;;;;;5111739;28;20200;-69
2022/09/27 01:49:04;;;;;;;9.82;8.93;;;;;;;;;;5112086;28;20197;-70
2022/09/27 01:51:32;;;;;;;8.60;7.68;;;;;;;;;;5111725;28;20293;-69
2022/09/27 01:54:01;;;;;;;7.68;7.07;;;;;;;;;;5112051;28;20259;-71
2022/09/27 01:56:31;;;;;;;7.75;7.05;;;;;;;;;;5111943;28;20196;-69
2022/09/27 01:58:59;;;;;;;7.78;6.95;;;;;;;;;;5111524;28;20743;-69
2022/09/27 02:01:28;;;;;;;8.15;7.28;;;;;;;;;;5111938;28;20201;-70
2022/09/27 02:03:57;;;;;;;7.93;7.32;;;;;;;;;;5111741;28;20197;-69
2022/09/27 02:06:26;;;;;;;10.10;8.98;;;;;;;;;;5111494;28;20240;-68
2022/09/27 02:08:54;;;;;;;8.80;7.68;;;;;;;;;;5111981;28;20264;-69
2022/09/27 02:11:21;;;;;;;9.77;7.25;;;;;;;;;;5111008;28;20743;-68
2022/09/27 02:13:52;;;;;;;11.10;7.93;;;;;;;;;;5111996;28;20257;-69
2022/09/27 02:16:22;;;;;;;11.80;8.32;;;;;;;;;;5111385;28;20220;-67
2022/09/27 02:18:55;;;;;;;8.88;8.05;;;;;;;;;;5111822;28;20295;-69
2022/09/27 02:21:25;;;;;;;8.95;8.20;;;;;;;;;;5111926;28;20265;-69
2022/09/27 02:23:54;;;;;;;8.98;7.60;;;;;;;;;;5111651;28;20670;-69
2022/09/27 02:26:22;;;;;;;8.52;7.85;;;;;;;;;;5111547;28;20204;-68
2022/09/27 02:28:52;;;;;;;8.10;7.50;;;;;;;;;;5111487;28;20261;-69
2022/09/27 02:31:19;;;;;;;8.90;8.20;;;;;;;;;;5111863;28;20196;-69
2022/09/27 02:33:47;;;;;;;10.98;9.95;;;;;;;;;;5111322;28;20196;-70
2022/09/27 02:36:14;;;;;;;9.43;8.63;;;;;;;;;;5114312;28;20270;-70
2022/09/27 02:38:42;;;;;;;12.45;8.82;;;;;;;;;;5115882;28;20654;-68
2022/09/27 02:41:13;;;;;;;9.48;8.68;;;;;;;;;;5115335;28;20246;-69
2022/09/27 02:43:39;;;;;;;8.75;7.95;;;;;;;;;;5115392;28;20613;-68
2022/09/27 02:46:14;;;;;;;9.15;8.43;;;;;;;;;;5115308;28;20625;-68
2022/09/27 02:48:46;;;;;;;10.05;9.13;;;;;;;;;;5116069;28;20197;-67
2022/09/27 02:51:17;;;;;;;9.95;9.05;;;;;;;;;;5115165;28;20632;-68
2022/09/27 02:53:50;;;;;;;9.35;8.48;;;;;;;;;;5115257;28;20241;-69
2022/09/27 02:56:24;;;;;;;9.00;8.00;;;;;;;;;;5115282;28;20273;-68
2022/09/27 02:58:56;;;;;;;8.75;7.97;;;;;;;;;;5115308;28;20201;-70
2022/09/27 03:01:25;;;;;;;8.50;7.75;;;;;;;;;;5114548;28;20204;-69
2022/09/27 03:03:53;;;;;;;8.52;7.80;;;;;;;;;;5115447;28;20192;-70
2022/09/27 03:06:21;;;;;;;8.52;7.82;;;;;;;;;;5114782;28;20233;-68
2022/09/27 03:08:49;;;;;;;9.27;8.48;;;;;;;;;;5115231;28;20629;-69
2022/09/27 03:11:16;;;;;;;9.23;8.23;;;;;;;;;;5114822;28;20201;-69
2022/09/27 03:13:42;;;;;;;9.93;8.93;;;;;;;;;;5114798;28;20254;-68
2022/09/27 03:16:09;;;;;;;9.10;8.27;;;;;;;;;;5114985;28;20229;-66
2022/09/27 03:18:35;;;;;;;9.45;8.70;;;;;;;;;;5114950;28;20197;-68
2022/09/27 03:21:02;;;;;;;10.45;9.25;;;;;;;;;;5115649;28;20693;-69
2022/09/27 03:23:28;;;;;;;9.95;9.02;;;;;;;;;;5114824;28;20200;-68
2022/09/27 03:25:56;;;;;;;9.65;8.95;;;;;;;;;;5114473;28;20254;-69
2022/09/27 03:28:23;;;;;;;9.98;9.13;;;;;;;;;;5113670;28;20738;-70
2022/09/27 03:30:49;;;;;;;9.55;8.75;;;;;;;;;;5114529;28;20262;-70
2022/09/27 03:33:16;;;;;;;10.23;9.35;;;;;;;;;;5114485;28;20200;-69
2022/09/27 03:35:42;;;;;;;9.93;9.02;;;;;;;;;;5114327;28;20216;-70
2022/09/27 03:38:10;;;;;;;8.40;7.78;;;;;;;;;;5114600;28;20197;-70
2022/09/27 03:40:36;;;;;;;10.10;9.25;;;;;;;;;;5114038;28;20204;-69
2022/09/27 03:43:04;;;;;;;9.02;8.23;;;;;;;;;;5114575;28;20201;-70
2022/09/27 03:45:31;;;;;;;26.33;20.58;;;;;;;;;;5113899;28;20811;-70
2022/09/27 03:47:57;;;;;;;69.00;44.15;;;;;;;;;;5113263;28;20193;-70
2022/09/27 03:50:24;;;;;;;24.83;21.00;;;;;;;;;;5114161;28;20254;-68
2022/09/27 03:52:51;;;;;;;12.38;11.20;;;;;;;;;;5105435;28;20580;-68
2022/09/27 03:55:17;;;;;;;9.20;8.52;;;;;;;;;;5113872;28;20225;-67
2022/09/27 03:57:45;;;;;;;10.05;9.25;;;;;;;;;;5113885;28;20197;-69
2022/09/27 04:00:13;;;;;;;26.98;22.23;;;;;;;;;;5113608;28;20201;-70
2022/09/27 04:02:40;;;;;;;10.93;10.02;;;;;;;;;;5113098;28;20201;-69
2022/09/27 04:05:07;;;;;;;11.77;10.57;;;;;;;;;;5113437;28;20242;-69
2022/09/27 04:07:33;;;;;;;12.07;10.88;;;;;;;;;;5113721;28;20212;-71
2022/09/27 04:10:00;;;;;;;10.75;9.52;;;;;;;;;;5114086;28;20200;-69
2022/09/27 04:12:26;;;;;;;11.45;10.50;;;;;;;;;;5113743;28;20197;-70
2022/09/27 04:14:54;;;;;;;10.80;9.68;;;;;;;;;;5113565;28;20246;-70
2022/09/27 04:17:21;;;;;;;19.35;15.93;;;;;;;;;;5113226;28;20197;-70
2022/09/27 04:19:48;;;;;;;40.72;31.35;;;;;;;;;;5113851;28;20203;-70
2022/09/27 04:22:14;;;;;;;13.43;11.55;;;;;;;;;;5113606;28;20281;-69
2022/09/27 04:24:41;;;;;;;14.95;13.45;;;;;;;;;;5113305;28;20212;-68
2022/09/27 04:27:07;;;;;;;11.23;10.23;;;;;;;;;;5113162;28;20205;-68
2022/09/27 04:29:34;;;;;;;10.52;9.63;;;;;;;;;;5113037;28;20196;-69
2022/09/27 04:32:00;;;;;;;13.80;9.75;;;;;;;;;;5112950;28;20246;-69
2022/09/27 04:37:10;;;;;;;39.90;28.67;;;;;;;;;;5111868;28;20215;-68
2022/09/27 04:39:38;;;;;;;15.23;13.73;;;;;;;;;;5112612;28;20197;-70
2022/09/27 04:42:05;;;;;;;11.23;10.25;;;;;;;;;;5112742;28;20679;-68
2022/09/27 04:44:31;;;;;;;14.40;11.70;;;;;;;;;;5113141;28;20201;-67
2022/09/27 04:46:57;;;;;;;12.65;11.57;;;;;;;;;;5112459;28;20674;-67
2022/09/27 04:49:24;;;;;;;11.68;10.63;;;;;;;;;;5113014;28;20610;-68
2022/09/27 04:51:52;;;;;;;13.05;11.70;;;;;;;;;;5113185;28;20201;-69
2022/09/27 04:54:18;;;;;;;13.10;11.90;;;;;;;;;;5112652;28;20197;-68
2022/09/27 04:56:47;;;;;;;13.05;11.02;;;;;;;;;;5115123;28;20231;-68
2022/09/27 04:59:14;;;;;;;13.75;12.48;;;;;;;;;;5112206;28;20297;-69
2022/09/27 05:01:40;;;;;;;15.43;11.70;;;;;;;;;;5112109;28;20242;-68
2022/09/27 05:04:07;;;;;;;14.32;12.98;;;;;;;;;;5112371;28;20217;-70
2022/09/27 05:06:33;;;;;;;14.93;13.07;;;;;;;;;;5111892;28;20278;-69
2022/09/27 05:09:01;;;;;;;14.55;12.32;;;;;;;;;;5112945;28;21223;-70
2022/09/27 05:11:27;;;;;;;12.60;11.50;;;;;;;;;;5112293;28;20197;-69
2022/09/27 05:13:54;;;;;;;13.10;11.80;;;;;;;;;;5112457;28;20201;-70
2022/09/27 05:16:21;;;;;;;12.02;10.73;;;;;;;;;;5112477;28;20221;-70
2022/09/27 05:18:47;;;;;;;17.15;10.60;;;;;;;;;;5112174;28;20670;-70
2022/09/27 05:21:13;;;;;;;12.45;11.27;;;;;;;;;;5112160;28;20739;-69
2022/09/27 05:23:40;;;;;;;11.30;10.23;;;;;;;;;;5112784;28;20201;-68
2022/09/27 05:26:08;;;;;;;12.13;10.93;;;;;;;;;;5112324;28;20250;-69
2022/09/27 05:28:35;;;;;;;12.25;11.02;;;;;;;;;;5112288;28;20727;-70
2022/09/27 05:31:01;;;;;;;14.35;11.63;;;;;;;;;;5112545;28;20196;-69
2022/09/27 05:33:28;;;;;;;13.10;10.32;;;;;;;;;;5112280;28;20197;-69
2022/09/27 05:35:55;;;;;;;12.43;11.18;;;;;;;;;;5111734;28;20588;-69
2022/09/27 05:38:22;;;;;;;10.32;9.63;;;;;;;;;;5112442;28;20201;-68
2022/09/27 05:40:49;;;;;;;11.77;10.77;;;;;;;;;;5112237;28;20675;-69
2022/09/27 05:43:18;;;;;;;11.60;10.50;;;;;;;;;;5112095;28;20211;-69
2022/09/27 05:45:45;;;;;;;11.20;10.07;;;;;;;;;;5111747;28;20201;-69
2022/09/27 05:48:13;;;;;;;11.98;10.80;;;;;;;;;;5111636;28;20208;-69
2022/09/27 05:50:40;;;;;;;12.30;9.38;;;;;;;;;;5111779;28;20200;-68
2022/09/27 05:53:06;;;;;;;11.25;10.18;;;;;;;;;;5111815;28;20254;-67
2022/09/27 05:55:33;;;;;;;10.90;10.10;;;;;;;;;;5111564;28;20360;-68
2022/09/27 05:58:00;;;;;;;12.75;10.40;;;;;;;;;;5112114;28;20208;-70
2022/09/27 06:00:29;;;;;;;11.23;10.18;;;;;;;;;;5111598;28;20205;-66
2022/09/27 06:02:56;;;;;;;11.73;10.73;;;;;;;;;;5111080;28;20193;-68
2022/09/27 06:05:23;;;;;;;11.27;10.27;;;;;;;;;;5111555;28;20233;-69
2022/09/27 06:07:50;;;;;;;12.77;11.55;;;;;;;;;;5111637;28;20212;-67
2022/09/27 06:10:17;;;;;;;12.27;10.73;;;;;;;;;;5111087;28;20189;-68
2022/09/27 06:12:44;;;;;;;12.13;11.02;;;;;;;;;;5112016;28;20197;-69
2022/09/27 06:15:10;;;;;;;12.38;11.07;;;;;;;;;;5111598;28;20203;-68
2022/09/27 06:17:38;;;;;;;12.50;11.30;;;;;;;;;;5111559;28;20197;-67
2022/09/27 06:20:06;;;;;;;12.73;11.48;;;;;;;;;;5111864;28;20254;-68
2022/09/27 06:22:33;;;;;;;15.30;12.23;;;;;;;;;;5112275;28;20197;-66
2022/09/27 06:24:59;;;;;;;12.70;11.50;;;;;;;;;;5111905;28;20204;-68
2022/09/27 06:27:26;;;;;;;12.90;11.68;;;;;;;;;;5111781;28;20197;-67
2022/09/27 06:29:52;;;;;;;12.73;11.63;;;;;;;;;;5111441;28;20666;-68
2022/09/27 06:32:19;;;;;;;15.07;12.65;;;;;;;;;;5111762;28;20196;-68
2022/09/27 06:34:47;;;;;;;14.00;12.63;;;;;;;;;;5112051;28;20205;-67
2022/09/27 06:37:14;;;;;;;13.05;11.70;;;;;;;;;;5112064;28;20289;-68
2022/09/27 06:39:41;;;;;;;13.68;12.38;;;;;;;;;;5111816;28;20234;-68
2022/09/27 06:42:09;;;;;;;13.07;11.77;;;;;;;;;;5110868;28;20306;-68
2022/09/27 06:44:36;;;;;;;15.02;13.55;;;;;;;;;;5110455;28;20223;-67
2022/09/27 06:47:02;;;;;;;13.20;12.00;;;;;;;;;;5110489;28;20724;-67
2022/09/27 06:49:30;;;;;;;14.70;13.15;;;;;;;;;;5110723;28;20201;-67
2022/09/27 06:51:58;;;;;;;14.15;12.18;;;;;;;;;;5110429;28;20262;-68
2022/09/27 06:54:25;;;;;;;18.98;13.80;;;;;;;;;;5110708;28;20667;-68
2022/09/27 06:56:51;;;;;;;16.23;14.55;;;;;;;;;;5110894;28;20224;-68
2022/09/27 07:02:01;;;;;;;14.18;12.88;;;;;;;;;;5111192;28;20660;-67
2022/09/27 07:04:28;;;;;;;16.48;13.35;;;;;;;;;;5111313;28;20201;-68
2022/09/27 07:06:54;;;;;;;15.90;13.82;;;;;;;;;;5110589;28;20225;-68
2022/09/27 07:09:22;;;;;;;17.02;14.35;;;;;;;;;;5111112;28;20246;-68
2022/09/27 07:11:48;;;;;;;17.83;14.80;;;;;;;;;;5111194;28;20197;-68
2022/09/27 07:14:16;;;;;;;16.17;14.50;;;;;;;;;;5111204;28;20198;-67
2022/09/27 07:16:42;;;;;;;17.90;15.90;;;;;;;;;;5111048;28;20221;-66
2022/09/27 07:19:10;;;;;;;17.00;14.30;;;;;;;;;;5111329;28;20257;-68
2022/09/27 07:21:37;;;;;;;17.95;15.32;;;;;;;;;;5111444;28;20580;-67
2022/09/27 07:24:03;;;;;;;17.73;15.40;;;;;;;;;;5114677;28;20250;-68
2022/09/27 07:26:31;;;;;;;16.77;14.98;;;;;;;;;;5114856;28;20219;-67
2022/09/27 07:28:58;;;;;;;21.75;17.75;;;;;;;;;;5114744;28;20254;-68
2022/09/27 07:31:24;;;;;;;24.75;20.48;;;;;;;;;;5115031;28;20475;-68
2022/09/27 07:33:52;;;;;;;18.98;16.77;;;;;;;;;;5114510;28;20628;-70
2022/09/27 07:36:18;;;;;;;20.92;17.92;;;;;;;;;;5114149;28;20235;-69
2022/09/27 07:38:45;;;;;;;18.05;16.05;;;;;;;;;;5114086;28;20269;-68
2022/09/27 07:41:12;;;;;;;17.10;15.60;;;;;;;;;;5114440;28;20242;-67
2022/09/27 07:43:40;;;;;;;20.13;15.40;;;;;;;;;;5114623;28;20199;-68
2022/09/27 07:46:07;;;;;;;20.17;16.25;;;;;;;;;;5114250;28;20189;-68
2022/09/27 07:48:34;;;;;;;16.95;15.27;;;;;;;;;;5113874;28;20203;-68
2022/09/27 07:51:00;;;;;;;20.23;17.05;;;;;;;;;;5113925;28;20743;-68
2022/09/27 07:53:27;;;;;;;16.50;14.82;;;;;;;;;;5114494;28;20193;-69
2022/09/27 07:55:54;;;;;;;16.98;15.25;;;;;;;;;;5114130;28;20197;-68
2022/09/27 07:58:20;;;;;;;17.88;16.02;;;;;;;;;;5114019;28;20788;-69
2022/09/27 08:00:48;;;;;;;19.52;16.10;;;;;;;;;;5113665;28;20622;-69
2022/09/27 08:03:16;;;;;;;20.90;17.38;;;;;;;;;;5113656;28;20193;-69
2022/09/27 08:05:42;;;;;;;19.10;17.10;;;;;;;;;;5113550;28;20233;-69
2022/09/27 08:08:09;;;;;;;17.92;16.23;;;;;;;;;;5113937;28;20201;-68
2022/09/27 08:10:36;;;;;;;18.75;16.23;;;;;;;;;;5113343;28;20277;-69
2022/09/27 08:13:03;;;;;;;26.45;18.83;;;;;;;;;;5113563;28;20208;-69
2022/09/27 08:15:30;;;;;;;26.77;17.23;;;;;;;;;;5113322;28;20197;-68
2022/09/27 08:17:58;;;;;;;21.63;17.10;;;;;;;;;;5113675;28;20669;-65
2022/09/27 08:20:25;;;;;;;23.38;17.05;;;;;;;;;;5113542;28;20254;-62
2022/09/27 08:22:51;;;;;;;21.95;17.17;;;;;;;;;;5114002;28;20197;-68
2022/09/27 08:25:18;;;;;;;18.35;16.30;;;;;;;;;;5113678;28;20197;-66
2022/09/27 08:27:44;;;;;;;17.20;15.48;;;;;;;;;;5113030;28;20808;-69
2022/09/27 08:30:11;;;;;;;15.88;14.05;;;;;;;;;;5113636;28;20201;-68
2022/09/27 08:32:37;;;;;;;17.00;15.48;;;;;;;;;;5112534;28;20201;-68
2022/09/27 08:35:07;;;;;;;16.48;14.80;;;;;;;;;;5113076;28;20250;-68
2022/09/27 08:37:34;;;;;;;16.15;14.48;;;;;;;;;;5113403;28;20225;-67
2022/09/27 08:40:00;;;;;;;15.68;14.05;;;;;;;;;;5113106;28;20201;-67
2022/09/27 08:42:31;;;;;;;16.45;14.95;;;;;;;;;;5112870;28;20197;-67
2022/09/27 08:45:01;;;;;;;18.58;15.85;;;;;;;;;;5112756;28;20329;-68
2022/09/27 08:47:30;;;;;;;16.70;15.13;;;;;;;;;;5112429;28;20735;-68
2022/09/27 08:49:58;;;;;;;16.48;14.80;;;;;;;;;;5112400;28;20193;-67
2022/09/27 08:52:28;;;;;;;14.20;13.02;;;;;;;;;;5113215;28;20579;-68
2022/09/27 08:54:55;;;;;;;14.13;12.45;;;;;;;;;;5112661;28;20751;-69
2022/09/27 08:57:23;;;;;;;12.70;11.60;;;;;;;;;;5112326;28;20289;-68
2022/09/27 08:59:53;;;;;;;13.50;12.27;;;;;;;;;;5112866;28;20303;-67
2022/09/27 09:02:20;;;;;;;14.23;11.63;;;;;;;;;;5112429;28;20262;-68
2022/09/27 09:04:48;;;;;;;12.15;11.05;;;;;;;;;;5112548;28;20196;-68
2022/09/27 09:07:20;;;;;;;12.88;11.82;;;;;;;;;;5112115;28;20241;-68
2022/09/27 09:09:55;;;;;;;12.05;10.85;;;;;;;;;;5112718;28;20205;-68
2022/09/27 09:15:21;;;;;;;12.88;11.88;;;;;;;;;;5112414;28;20200;-69
2022/09/27 09:17:55;;;;;;;16.58;11.30;;;;;;;;;;5112085;28;21021;-68
2022/09/27 09:20:32;;;;;;;13.38;10.65;;;;;;;;;;5112250;28;20614;-69
2022/09/27 09:23:09;;;;;;;12.20;10.88;;;;;;;;;;5112743;28;20283;-69
2022/09/27 09:25:41;;;;;;;12.32;11.23;;;;;;;;;;5111858;28;20201;-70
2022/09/27 09:28:17;;;;;;;16.13;11.32;;;;;;;;;;5111918;28;20193;-66
2022/09/27 09:30:46;;;;;;;11.57;10.30;;;;;;;;;;5111497;28;20278;-67
2022/09/27 09:33:16;;;;;;;11.57;10.48;;;;;;;;;;5112409;28;20193;-67
2022/09/27 09:35:44;;;;;;;12.30;11.15;;;;;;;;;;5112053;28;20205;-67
2022/09/27 09:38:13;;;;;;;14.85;11.55;;;;;;;;;;5111510;28;20726;-70
2022/09/27 09:40:42;;;;;;;11.05;9.95;;;;;;;;;;5112025;28;20197;-69
2022/09/27 09:43:12;;;;;;;10.25;9.35;;;;;;;;;;5112583;28;20201;-69
2022/09/27 09:45:40;;;;;;;12.38;9.05;;;;;;;;;;5111470;28;20563;-69
2022/09/27 09:48:16;;;;;;;11.00;9.95;;;;;;;21.50;nan;93901.59;5112506;28;20628;-68
2022/09/27 09:50:48;;;;;;;12.00;9.10;;;;;;;22.02;nan;93903.41;5112608;28;20200;-71
2022/09/27 09:53:19;;;;;;;9.55;8.57;;;;;;;21.37;nan;93896.75;5112285;28;20690;-66
2022/09/27 09:55:52;;;;;;;10.55;9.38;;;;;;;20.68;nan;93894.59;5111893;28;20199;-67
2022/09/27 09:58:24;;;;;;;11.80;10.80;;;;;;;20.73;nan;93900.16;5111939;28;20277;-71
2022/09/27 10:00:56;;;;;;;11.88;10.80;;;;;;;20.83;nan;93897.50;5103677;28;20197;-68
2022/09/27 10:03:23;;;;;;;10.98;10.02;;;;;;;20.65;nan;93902.59;5111715;28;20193;-68
2022/09/27 10:05:50;;;;;;;10.50;9.70;;;;;;;20.49;nan;93900.63;5111408;28;21989;-67
2022/09/27 10:08:20;;;;;;;10.55;9.55;;;;;;;20.09;nan;93893.03;5111587;28;20197;-69
2022/09/27 10:10:48;;;;;;;10.60;9.75;;;;;;;19.91;nan;93886.94;5111309;28;20201;-68
2022/09/27 10:13:17;;;;;;;11.70;10.70;;;;;;;19.92;nan;93883.41;5111243;28;20250;-68
2022/09/27 10:15:53;;;;;;;9.88;8.88;;;;;;;19.83;nan;93876.47;5110912;28;20201;-68
2022/09/27 10:18:20;;;;;;;10.90;9.88;;;;;;;19.98;nan;93872.53;5110739;28;20705;-67
2022/09/27 10:20:52;;;;;;;9.50;8.90;;;;;;;20.12;nan;93861.78;5110960;28;20265;-67
2022/09/27 10:23:23;;;;;;;10.35;9.52;;;;;;;20.41;nan;93858.38;5111322;28;20212;-68
2022/09/27 10:25:54;;;;;;;11.40;9.30;;;;;;;20.94;nan;93858.63;5111408;28;20201;-67
2022/09/27 10:28:31;;;;;;;12.98;9.43;;;;;;;21.23;nan;93853.34;5111166;28;20242;-67
2022/09/27 10:31:01;;;;;;;9.85;8.90;;;;;;;20.98;nan;93871.09;5111263;28;20236;-67
2022/09/27 10:33:30;;;;;;;9.90;8.95;;;;;;;20.62;nan;93849.50;5111202;28;20746;-68
2022/09/27 10:35:57;;;;;;;10.23;9.20;;;;;;;20.19;nan;93847.41;5111067;28;20287;-67
2022/09/27 10:38:28;;;;;;;11.38;10.48;;;;;;;20.16;nan;93847.69;5111262;28;20216;-68
2022/09/27 10:40:58;;;;;;;10.00;9.20;;;;;;;20.19;nan;93842.25;5110831;28;20687;-68
2022/09/27 10:43:29;;;;;;;10.93;9.77;;;;;;;19.88;nan;93844.19;5111225;28;20193;-70
2022/09/27 10:46:05;;;;;;;11.52;9.95;;;;;;;19.85;nan;93843.63;5111369;28;20200;-67
2022/09/27 10:48:31;;;;;;;10.20;9.30;;;;;;;19.99;nan;93850.97;5111230;28;20201;-68
2022/09/27 10:51:00;;;;;;;11.27;9.85;;;;;;;20.20;nan;93848.22;5111304;28;20204;-68
2022/09/27 10:53:29;;;;;;;9.52;8.73;;;;;;;20.30;nan;93838.69;5111091;28;20674;-69
2022/09/27 10:55:58;;;;;;;9.65;8.50;;;;;;;20.26;nan;93827.84;5111558;28;20257;-68
2022/09/27 10:58:28;;;;;;;11.43;9.18;;;;;;;20.43;nan;93825.50;5114127;28;20316;-68
2022/09/27 11:00:57;;;;;;;10.25;9.35;;;;;;;20.94;nan;93818.09;5115167;28;20197;-67
2022/09/27 11:03:27;;;;;;;9.38;8.68;;;;;;;21.11;nan;93813.13;5114811;28;20196;-67
2022/09/27 11:05:54;;;;;;;12.40;8.45;;;;;;;21.43;nan;93810.91;5114743;28;20229;-68
2022/09/27 11:08:28;;;;;;;11.27;10.15;;;;;;;21.21;nan;93812.13;5114623;28;20250;-68
2022/09/27 11:11:05;;;;;;;8.07;7.40;;;;;;;21.06;nan;93803.22;5114664;28;20555;-68
2022/09/27 11:13:33;;;;;;;8.23;7.47;;;;;;;21.22;nan;93789.69;5116602;28;20215;-70
2022/09/27 11:16:25;;;;;;;6.93;6.20;;;;;;;21.35;nan;93796.13;5115366;28;20329;-68
2022/09/27 11:19:03;;;;;;;6.30;5.90;;;;;;;21.26;nan;93778.13;5114977;28;20220;-68
2022/09/27 11:21:41;;;;;;;6.38;5.28;;;;;;;21.15;nan;93788.63;5114995;28;20200;-69
2022/09/27 11:24:25;;;;;;;5.82;4.88;;;;;;;21.09;nan;93789.19;5114644;28;20236;-68
2022/09/27 11:27:05;;;;;;;5.80;5.40;;;;;;;21.05;nan;93778.34;5114257;28;20579;-68
2022/09/27 11:29:44;;;;;;;6.28;5.68;;;;;;;21.09;nan;93795.16;5114375;28;20193;-67
2022/09/27 11:32:22;;;;;;;7.50;6.90;;;;;;;21.12;nan;93783.75;5114379;28;20234;-69
2022/09/27 11:35:19;;;;;;;7.22;6.70;;;;;;;21.19;nan;93758.97;5114560;28;20201;-69
2022/09/27 11:37:52;;;;;;;6.47;6.00;;;;;;;21.47;nan;93765.72;5114472;28;20217;-68
2022/09/27 11:40:30;;;;;;;6.05;5.55;;;;;;;21.61;nan;93747.06;5113921;28;20520;-67
2022/09/27 11:43:22;;;;;;;6.43;5.60;;;;;;;21.41;nan;93740.44;5114554;28;20220;-68
2022/09/27 11:45:58;;;;;;;6.82;6.13;;;;;;;21.41;nan;93739.66;5114047;28;20222;-69
2022/09/27 11:48:44;;;;;;;56.92;40.75;;;;;;;21.64;nan;93743.38;5113928;28;20284;-66
2022/09/27 11:51:30;;;;;;;84.05;57.60;;;;;;;22.27;nan;93743.19;5113962;28;20201;-66
2022/09/27 11:54:12;;;;;;;8.23;7.20;;;;;;;22.47;nan;93733.41;5112995;28;20197;-68
2022/09/27 11:56:47;;;;;;;6.20;5.80;;;;;;;22.76;nan;93739.03;5113346;28;20200;-69
2022/09/27 11:59:42;;;;;;;5.72;5.25;;;;;;;22.59;nan;93725.22;5112567;28;20604;-68
2022/09/27 12:02:35;;;;;;;8.88;5.63;;;;;;;22.82;nan;93715.13;5112941;28;20197;-68
2022/09/27 12:05:18;;;;;;;7.00;6.40;;;;;;;23.15;nan;93710.00;5095523;28;20197;-68
2022/09/27 12:07:52;;;;;;;5.82;5.20;;;;;;;23.18;nan;93714.88;5112196;28;20683;-69
2022/09/27 12:10:20;;;;;;;5.60;5.10;;;;;;;23.17;nan;93703.69;5112731;28;20200;-69
2022/09/27 12:12:52;;;;;;;11.40;6.55;;;;;;;23.18;nan;93710.50;5112472;28;20299;-69
2022/09/27 12:15:25;;;;;;;5.45;4.93;;;;;;;23.39;nan;93704.84;5112529;28;20205;-69
2022/09/27 12:17:55;;;;;;;6.43;5.85;;;;;;;23.93;nan;93693.00;5112504;28;20225;-69
2022/09/27 12:20:25;;;;;;;8.35;5.38;;;;;;;24.26;nan;93682.56;5112400;28;20662;-70
2022/09/27 12:22:56;;;;;;;6.85;4.50;;;;;;;24.11;nan;93669.44;5112691;28;20205;-69
2022/09/27 12:25:28;;;;;;;9.77;4.68;;;;;;;24.17;nan;93667.97;5112184;28;20204;-68
2022/09/27 12:28:01;;;;;;;5.70;4.80;;;;;;;24.42;nan;93664.34;5112096;28;20193;-69
2022/09/27 12:30:31;;;;;;;6.53;5.93;;;;;;;23.99;nan;93657.81;5112013;28;20270;-69
2022/09/27 12:33:06;;;;;;;4.00;3.80;;;;;;;23.74;nan;93659.66;5112834;28;20758;-68
2022/09/27 12:35:39;;;;;;;7.65;5.95;;;;;;;23.88;nan;93648.59;5112055;28;20197;-68
2022/09/27 12:38:12;;;;;;;5.85;5.35;;;;;;;24.13;nan;93638.94;5111403;28;20641;-69
2022/09/27 12:40:41;;;;;;;5.32;4.57;;;;;;;24.28;nan;93655.44;5112367;28;20201;-69
2022/09/27 12:43:16;;;;;;;4.43;4.13;;;;;;;24.12;nan;93639.09;5112210;28;20193;-69
2022/09/27 12:45:53;;;;;;;5.35;4.90;;;;;;;23.69;nan;93636.78;5112224;28;20197;-69
2022/09/27 12:48:30;;;;;;;5.22;4.82;;;;;;;23.98;nan;93630.25;5111423;28;20230;-69
2022/09/27 12:51:06;;;;;;;3.95;3.25;;;;;;;24.28;nan;93621.72;5111512;28;20245;-69
2022/09/27 12:53:47;;;;;;;2.78;2.38;;;;;;;24.35;nan;93612.28;5111555;28;20261;-70
2022/09/27 12:56:25;;;;;;;3.33;2.50;;;;;;;24.38;nan;93617.13;5112370;28;20200;-69
2022/09/27 12:59:12;;;;;;;2.67;2.50;;;;;;;24.54;nan;93599.84;5114382;28;20307;-67
2022/09/27 13:02:06;;;;;;;4.53;2.90;;;;;;;24.57;nan;93615.06;5114682;28;20201;-68
2022/09/27 13:04:55;;;;;;;3.50;3.20;;;;;;;24.51;nan;93628.75;5067359;28;20201;-68
2022/09/27 13:07:32;;;;;;;4.07;3.72;;;;;;;24.61;nan;93629.34;5110917;28;20236;-68
2022/09/27 13:10:13;;;;;;;3.75;3.30;;;;;;;24.74;nan;93643.41;5111819;28;20201;-69
2022/09/27 13:12:41;;;;;;;4.72;4.32;;;;;;;24.65;nan;93635.81;5112440;28;20199;-69
2022/09/27 13:15:17;;;;;;;6.10;4.25;;;;;;;24.35;nan;93645.22;5112227;28;20197;-69
2022/09/27 13:17:54;;;;;;;5.22;3.42;;;;;;;24.36;nan;93652.84;5112167;28;20316;-68
2022/09/27 13:20:45;;;;;;;4.00;3.15;;;;;;;24.84;nan;93653.56;5111070;28;20199;-69
2022/09/27 13:24:03;;;;;;;3.08;2.28;;;;;;;25.21;nan;93645.06;5111982;28;20193;-68
2022/09/27 13:26:48;;;;;;;4.47;2.88;;;;;;;25.08;nan;93624.84;5112745;28;20201;-68
2022/09/27 13:29:32;;;;;;;2.78;2.67;;;;;;;25.18;nan;93629.00;5111082;28;20197;-68
2022/09/27 13:32:21;;;;;;;3.17;2.35;;;;;;;25.39;nan;93632.56;5112594;28;20197;-69
2022/09/27 13:34:52;;;;;;;3.95;1.95;;;;;;;25.23;nan;93624.09;5112354;28;20208;-68
2022/09/27 13:37:45;;;;;;;2.35;2.22;;;;;;;25.19;nan;93625.44;5112109;28;20213;-67
2022/09/27 13:40:28;;;;;;;7.25;2.15;;;;;;;25.18;nan;93627.22;5112016;28;20239;-68
2022/09/27 13:43:19;;;;;;;4.97;2.47;;;;;;;25.39;nan;93623.97;5109449;28;20670;-68
2022/09/27 13:45:53;;;;;;;4.75;1.85;;;;;;;25.51;nan;93643.34;5111752;28;20667;-67
2022/09/27 13:48:26;;;;;;;6.38;2.38;;;;;;;25.31;nan;93640.44;5111837;28;20235;-67
2022/09/27 13:50:58;;;;;;;4.45;2.28;;;;;;;25.04;nan;93659.16;5112100;28;20353;-67
2022/09/27 13:53:30;;;;;;;4.65;1.65;;;;;;;25.03;nan;93647.13;5111832;28;20201;-69
2022/09/27 13:55:57;;;;;;;2.35;2.15;;;;;;;25.00;nan;93652.66;5111783;28;20265;-68
2022/09/27 13:58:45;;;;;;;2.05;1.83;;;;;;;24.79;nan;93655.84;5111499;28;20227;-69